Roland Colony, South Dakota
Current Conditions -  °F | °C
As of 5:34 AM on Thursday 27 Nov 2014 (Local Time) from KCNB Reporting Station
Clear Clear  
Wind Chill: -21°   Ceiling: Unl
Heat Index: -9°   Visibility: 10mi
Dew Point: -14°   Wind: 5mph
Humidity: 82%   Direction: 290°WNW
Pressure: 30.54"   Gusts: NA
Location:  44.4253°N, 96.5963°W
Report Text: KCNB 271134Z AUTO 29004KT 10SM CLR M23/M25 A3054 RMK AO2 T12301253
Loading
Personal Weather Stations






























Interactive Weather Map New forecast layout! Learn more

10-Day Weather Forecast

Advertisements
Track Severe Weather on mobile